sensor_id;sensor_type;location;lat;lon;timestamp;P1;durP1;ratioP1;P2;durP2;ratioP2
6121;SDS011;3091;51.506;7.672;2023-03-14T00:02:12;16.00;;;15.20;;
6121;SDS011;3091;51.506;7.672;2023-03-14T00:04:38;14.90;;;14.20;;
6121;SDS011;3091;51.506;7.672;2023-03-14T00:07:04;14.30;;;13.80;;
6121;SDS011;3091;51.506;7.672;2023-03-14T00:09:30;14.13;;;13.63;;
6121;SDS011;3091;51.506;7.672;2023-03-14T00:11:56;14.30;;;13.80;;
6121;SDS011;3091;51.506;7.672;2023-03-14T00:14:22;15.63;;;14.10;;
6121;SDS011;3091;51.506;7.672;2023-03-14T00:16:48;14.30;;;13.70;;
6121;SDS011;3091;51.506;7.672;2023-03-14T00:19:15;14.03;;;13.53;;
6121;SDS011;3091;51.506;7.672;2023-03-14T00:21:41;14.53;;;14.03;;
6121;SDS011;3091;51.506;7.672;2023-03-14T00:24:07;14.33;;;13.70;;
6121;SDS011;3091;51.506;7.672;2023-03-14T00:26:33;14.97;;;14.00;;
6121;SDS011;3091;51.506;7.672;2023-03-14T00:28:59;14.20;;;13.70;;
6121;SDS011;3091;51.506;7.672;2023-03-14T00:31:25;14.10;;;13.60;;
6121;SDS011;3091;51.506;7.672;2023-03-14T00:33:52;14.93;;;14.43;;
6121;SDS011;3091;51.506;7.672;2023-03-14T00:36:22;15.17;;;14.57;;
6121;SDS011;3091;51.506;7.672;2023-03-14T00:38:49;14.67;;;14.07;;
6121;SDS011;3091;51.506;7.672;2023-03-14T00:41:18;14.07;;;13.67;;
6121;SDS011;3091;51.506;7.672;2023-03-14T00:43:45;16.27;;;15.40;;
6121;SDS011;3091;51.506;7.672;2023-03-14T00:46:11;15.23;;;14.63;;
6121;SDS011;3091;51.506;7.672;2023-03-14T00:48:37;14.57;;;14.07;;
6121;SDS011;3091;51.506;7.672;2023-03-14T00:51:06;15.50;;;14.90;;
6121;SDS011;3091;51.506;7.672;2023-03-14T00:53:36;15.00;;;14.20;;
6121;SDS011;3091;51.506;7.672;2023-03-14T00:56:03;13.87;;;13.37;;
6121;SDS011;3091;51.506;7.672;2023-03-14T00:58:29;13.80;;;13.20;;
6121;SDS011;3091;51.506;7.672;2023-03-14T01:00:55;13.57;;;13.07;;
6121;SDS011;3091;51.506;7.672;2023-03-14T01:03:21;14.50;;;13.60;;
6121;SDS011;3091;51.506;7.672;2023-03-14T01:05:49;13.40;;;13.00;;
6121;SDS011;3091;51.506;7.672;2023-03-14T01:08:15;13.83;;;13.33;;
6121;SDS011;3091;51.506;7.672;2023-03-14T01:10:41;14.90;;;14.03;;
6121;SDS011;3091;51.506;7.672;2023-03-14T01:13:08;13.30;;;12.90;;
6121;SDS011;3091;51.506;7.672;2023-03-14T01:15:37;14.27;;;13.43;;
6121;SDS011;3091;51.506;7.672;2023-03-14T01:18:03;12.97;;;12.57;;
6121;SDS011;3091;51.506;7.672;2023-03-14T01:20:29;13.27;;;12.67;;
6121;SDS011;3091;51.506;7.672;2023-03-14T01:22:55;13.07;;;12.67;;
6121;SDS011;3091;51.506;7.672;2023-03-14T01:25:21;13.50;;;13.10;;
6121;SDS011;3091;51.506;7.672;2023-03-14T01:27:47;13.87;;;13.47;;
6121;SDS011;3091;51.506;7.672;2023-03-14T01:30:13;13.60;;;13.20;;
6121;SDS011;3091;51.506;7.672;2023-03-14T01:32:42;43.37;;;38.57;;
6121;SDS011;3091;51.506;7.672;2023-03-14T01:35:08;87.07;;;82.67;;
6121;SDS011;3091;51.506;7.672;2023-03-14T01:37:34;120.30;;;114.97;;
6121;SDS011;3091;51.506;7.672;2023-03-14T01:40:00;116.00;;;110.60;;
6121;SDS011;3091;51.506;7.672;2023-03-14T01:42:28;96.13;;;91.53;;
6121;SDS011;3091;51.506;7.672;2023-03-14T01:44:58;100.23;;;95.50;;
6121;SDS011;3091;51.506;7.672;2023-03-14T01:47:25;104.73;;;99.83;;
6121;SDS011;3091;51.506;7.672;2023-03-14T01:49:53;101.00;;;96.20;;
6121;SDS011;3091;51.506;7.672;2023-03-14T01:52:22;101.63;;;96.73;;
6121;SDS011;3091;51.506;7.672;2023-03-14T01:54:55;98.40;;;93.40;;
6121;SDS011;3091;51.506;7.672;2023-03-14T01:57:37;94.53;;;89.67;;
6121;SDS011;3091;51.506;7.672;2023-03-14T02:00:05;89.10;;;84.40;;
6121;SDS011;3091;51.506;7.672;2023-03-14T02:02:39;88.07;;;83.43;;
6121;SDS011;3091;51.506;7.672;2023-03-14T02:05:07;84.73;;;80.23;;
6121;SDS011;3091;51.506;7.672;2023-03-14T02:07:35;79.33;;;74.93;;
6121;SDS011;3091;51.506;7.672;2023-03-14T02:10:03;85.33;;;80.73;;
6121;SDS011;3091;51.506;7.672;2023-03-14T02:12:29;79.17;;;74.77;;
6121;SDS011;3091;51.506;7.672;2023-03-14T02:14:55;77.50;;;73.20;;
6121;SDS011;3091;51.506;7.672;2023-03-14T02:17:21;74.17;;;69.97;;
6121;SDS011;3091;51.506;7.672;2023-03-14T02:22:14;75.63;;;71.33;;
6121;SDS011;3091;51.506;7.672;2023-03-14T02:24:55;70.33;;;66.13;;
6121;SDS011;3091;51.506;7.672;2023-03-14T02:27:22;65.80;;;61.87;;
6121;SDS011;3091;51.506;7.672;2023-03-14T02:29:50;65.17;;;61.17;;
6121;SDS011;3091;51.506;7.672;2023-03-14T02:32:17;61.50;;;57.80;;
6121;SDS011;3091;51.506;7.672;2023-03-14T02:34:44;53.53;;;50.13;;
6121;SDS011;3091;51.506;7.672;2023-03-14T02:37:12;61.00;;;57.50;;
6121;SDS011;3091;51.506;7.672;2023-03-14T02:39:40;53.43;;;50.20;;
6121;SDS011;3091;51.506;7.672;2023-03-14T02:42:10;55.50;;;52.30;;
6121;SDS011;3091;51.506;7.672;2023-03-14T02:44:36;52.30;;;49.20;;
6121;SDS011;3091;51.506;7.672;2023-03-14T02:47:02;50.77;;;47.80;;
6121;SDS011;3091;51.506;7.672;2023-03-14T02:49:29;48.53;;;45.63;;
6121;SDS011;3091;51.506;7.672;2023-03-14T02:51:57;50.33;;;47.23;;
6121;SDS011;3091;51.506;7.672;2023-03-14T02:54:23;43.33;;;40.80;;
6121;SDS011;3091;51.506;7.672;2023-03-14T02:56:49;40.60;;;38.00;;
6121;SDS011;3091;51.506;7.672;2023-03-14T02:59:15;38.60;;;36.40;;
6121;SDS011;3091;51.506;7.672;2023-03-14T03:01:41;37.20;;;34.93;;
6121;SDS011;3091;51.506;7.672;2023-03-14T03:04:07;31.43;;;29.63;;
6121;SDS011;3091;51.506;7.672;2023-03-14T03:06:33;29.90;;;28.20;;
6121;SDS011;3091;51.506;7.672;2023-03-14T03:08:59;27.80;;;26.20;;
6121;SDS011;3091;51.506;7.672;2023-03-14T03:11:25;25.33;;;23.83;;
6121;SDS011;3091;51.506;7.672;2023-03-14T03:13:51;25.00;;;23.60;;
6121;SDS011;3091;51.506;7.672;2023-03-14T03:16:17;25.17;;;23.77;;
6121;SDS011;3091;51.506;7.672;2023-03-14T03:18:43;27.93;;;26.33;;
6121;SDS011;3091;51.506;7.672;2023-03-14T03:21:09;29.60;;;27.80;;
6121;SDS011;3091;51.506;7.672;2023-03-14T03:23:35;26.70;;;25.30;;
6121;SDS011;3091;51.506;7.672;2023-03-14T03:26:03;25.10;;;23.13;;
6121;SDS011;3091;51.506;7.672;2023-03-14T03:28:29;23.37;;;22.17;;
6121;SDS011;3091;51.506;7.672;2023-03-14T03:30:55;23.53;;;22.33;;
6121;SDS011;3091;51.506;7.672;2023-03-14T03:33:21;23.40;;;22.20;;
6121;SDS011;3091;51.506;7.672;2023-03-14T03:35:49;23.77;;;22.47;;
6121;SDS011;3091;51.506;7.672;2023-03-14T03:38:18;23.90;;;22.50;;
6121;SDS011;3091;51.506;7.672;2023-03-14T03:40:52;23.10;;;21.90;;
6121;SDS011;3091;51.506;7.672;2023-03-14T03:43:18;76.87;;;24.27;;
6121;SDS011;3091;51.506;7.672;2023-03-14T03:45:44;23.20;;;22.00;;
6121;SDS011;3091;51.506;7.672;2023-03-14T03:48:10;22.87;;;21.77;;
6121;SDS011;3091;51.506;7.672;2023-03-14T03:50:36;22.80;;;21.70;;
6121;SDS011;3091;51.506;7.672;2023-03-14T03:53:02;23.20;;;22.00;;
6121;SDS011;3091;51.506;7.672;2023-03-14T03:55:28;22.90;;;21.80;;
6121;SDS011;3091;51.506;7.672;2023-03-14T03:57:54;22.40;;;21.30;;
6121;SDS011;3091;51.506;7.672;2023-03-14T04:00:20;21.10;;;20.10;;
6121;SDS011;3091;51.506;7.672;2023-03-14T04:02:46;19.20;;;18.40;;
6121;SDS011;3091;51.506;7.672;2023-03-14T04:05:12;20.90;;;19.97;;
6121;SDS011;3091;51.506;7.672;2023-03-14T04:07:38;20.83;;;19.70;;
6121;SDS011;3091;51.506;7.672;2023-03-14T04:10:04;20.30;;;19.30;;
6121;SDS011;3091;51.506;7.672;2023-03-14T04:12:30;22.30;;;21.20;;
6121;SDS011;3091;51.506;7.672;2023-03-14T04:14:56;53.57;;;51.07;;
6121;SDS011;3091;51.506;7.672;2023-03-14T04:17:22;60.43;;;57.53;;
6121;SDS011;3091;51.506;7.672;2023-03-14T04:19:48;50.37;;;47.57;;
6121;SDS011;3091;51.506;7.672;2023-03-14T04:22:16;60.20;;;56.80;;
6121;SDS011;3091;51.506;7.672;2023-03-14T04:24:42;57.10;;;53.70;;
6121;SDS011;3091;51.506;7.672;2023-03-14T04:27:08;57.93;;;54.33;;
6121;SDS011;3091;51.506;7.672;2023-03-14T04:29:34;60.40;;;56.70;;
6121;SDS011;3091;51.506;7.672;2023-03-14T04:32:00;53.33;;;49.63;;
6121;SDS011;3091;51.506;7.672;2023-03-14T04:34:26;48.80;;;45.60;;
6121;SDS011;3091;51.506;7.672;2023-03-14T04:36:52;47.23;;;44.03;;
6121;SDS011;3091;51.506;7.672;2023-03-14T04:39:18;53.70;;;50.50;;
6121;SDS011;3091;51.506;7.672;2023-03-14T04:41:44;53.03;;;49.73;;
6121;SDS011;3091;51.506;7.672;2023-03-14T04:44:10;54.53;;;51.43;;
6121;SDS011;3091;51.506;7.672;2023-03-14T04:46:39;54.07;;;50.93;;
6121;SDS011;3091;51.506;7.672;2023-03-14T04:49:05;47.17;;;44.27;;
6121;SDS011;3091;51.506;7.672;2023-03-14T04:51:31;44.23;;;39.90;;
6121;SDS011;3091;51.506;7.672;2023-03-14T04:53:57;39.80;;;37.00;;
6121;SDS011;3091;51.506;7.672;2023-03-14T04:56:23;41.00;;;38.20;;
6121;SDS011;3091;51.506;7.672;2023-03-14T04:58:49;44.23;;;41.33;;
6121;SDS011;3091;51.506;7.672;2023-03-14T05:01:15;42.37;;;39.47;;
6121;SDS011;3091;51.506;7.672;2023-03-14T05:03:41;38.10;;;35.50;;
6121;SDS011;3091;51.506;7.672;2023-03-14T05:06:07;36.97;;;34.37;;
6121;SDS011;3091;51.506;7.672;2023-03-14T05:08:33;34.10;;;31.60;;
6121;SDS011;3091;51.506;7.672;2023-03-14T05:10:59;33.67;;;31.17;;
6121;SDS011;3091;51.506;7.672;2023-03-14T05:13:25;33.30;;;30.90;;
6121;SDS011;3091;51.506;7.672;2023-03-14T05:15:51;32.63;;;30.23;;
6121;SDS011;3091;51.506;7.672;2023-03-14T05:18:17;31.93;;;29.63;;
6121;SDS011;3091;51.506;7.672;2023-03-14T05:20:43;32.63;;;30.33;;
6121;SDS011;3091;51.506;7.672;2023-03-14T05:23:09;33.97;;;31.57;;
6121;SDS011;3091;51.506;7.672;2023-03-14T05:25:35;34.23;;;31.90;;
6121;SDS011;3091;51.506;7.672;2023-03-14T05:28:01;34.30;;;32.00;;
6121;SDS011;3091;51.506;7.672;2023-03-14T05:30:27;32.87;;;30.57;;
6121;SDS011;3091;51.506;7.672;2023-03-14T05:32:55;31.70;;;29.40;;
6121;SDS011;3091;51.506;7.672;2023-03-14T05:35:21;33.00;;;30.60;;
6121;SDS011;3091;51.506;7.672;2023-03-14T05:37:47;33.47;;;31.17;;
6121;SDS011;3091;51.506;7.672;2023-03-14T05:40:15;35.70;;;33.20;;
6121;SDS011;3091;51.506;7.672;2023-03-14T05:42:41;35.50;;;33.00;;
6121;SDS011;3091;51.506;7.672;2023-03-14T05:45:07;34.67;;;32.27;;
6121;SDS011;3091;51.506;7.672;2023-03-14T05:47:33;35.40;;;32.90;;
6121;SDS011;3091;51.506;7.672;2023-03-14T05:49:59;33.33;;;31.03;;
6121;SDS011;3091;51.506;7.672;2023-03-14T05:52:25;32.23;;;29.83;;
6121;SDS011;3091;51.506;7.672;2023-03-14T05:54:51;33.97;;;31.57;;
6121;SDS011;3091;51.506;7.672;2023-03-14T05:57:17;33.77;;;31.37;;
6121;SDS011;3091;51.506;7.672;2023-03-14T05:59:43;33.97;;;31.50;;
6121;SDS011;3091;51.506;7.672;2023-03-14T06:02:09;37.90;;;35.30;;
6121;SDS011;3091;51.506;7.672;2023-03-14T06:04:38;38.67;;;35.97;;
6121;SDS011;3091;51.506;7.672;2023-03-14T06:07:04;37.00;;;34.40;;
6121;SDS011;3091;51.506;7.672;2023-03-14T06:09:30;34.60;;;32.10;;
6121;SDS011;3091;51.506;7.672;2023-03-14T06:11:56;33.50;;;31.10;;
6121;SDS011;3091;51.506;7.672;2023-03-14T06:14:22;33.70;;;31.20;;
6121;SDS011;3091;51.506;7.672;2023-03-14T06:16:48;35.77;;;33.17;;
6121;SDS011;3091;51.506;7.672;2023-03-14T06:19:15;35.23;;;32.63;;
6121;SDS011;3091;51.506;7.672;2023-03-14T06:21:41;38.20;;;35.50;;
6121;SDS011;3091;51.506;7.672;2023-03-14T06:24:07;37.47;;;34.87;;
6121;SDS011;3091;51.506;7.672;2023-03-14T06:26:33;38.10;;;35.30;;
6121;SDS011;3091;51.506;7.672;2023-03-14T06:28:59;39.27;;;36.53;;
6121;SDS011;3091;51.506;7.672;2023-03-14T06:31:28;37.90;;;35.30;;
6121;SDS011;3091;51.506;7.672;2023-03-14T06:33:57;38.57;;;35.97;;
6121;SDS011;3091;51.506;7.672;2023-03-14T06:36:23;38.83;;;36.23;;
6121;SDS011;3091;51.506;7.672;2023-03-14T06:38:49;39.00;;;36.30;;
6121;SDS011;3091;51.506;7.672;2023-03-14T06:41:15;37.60;;;35.00;;
6121;SDS011;3091;51.506;7.672;2023-03-14T06:43:41;36.33;;;33.83;;
6121;SDS011;3091;51.506;7.672;2023-03-14T06:46:07;35.97;;;33.57;;
6121;SDS011;3091;51.506;7.672;2023-03-14T06:48:33;36.70;;;34.30;;
6121;SDS011;3091;51.506;7.672;2023-03-14T06:51:02;37.60;;;35.10;;
6121;SDS011;3091;51.506;7.672;2023-03-14T06:53:28;41.00;;;38.30;;
6121;SDS011;3091;51.506;7.672;2023-03-14T06:55:54;43.47;;;40.57;;
6121;SDS011;3091;51.506;7.672;2023-03-14T06:58:20;42.83;;;40.03;;
6121;SDS011;3091;51.506;7.672;2023-03-14T07:00:46;43.47;;;40.57;;
6121;SDS011;3091;51.506;7.672;2023-03-14T07:03:14;44.43;;;41.43;;
6121;SDS011;3091;51.506;7.672;2023-03-14T07:05:41;45.00;;;42.10;;
6121;SDS011;3091;51.506;7.672;2023-03-14T07:08:07;45.33;;;42.53;;
6121;SDS011;3091;51.506;7.672;2023-03-14T07:10:33;46.20;;;43.40;;
6121;SDS011;3091;51.506;7.672;2023-03-14T07:12:59;43.77;;;40.97;;
6121;SDS011;3091;51.506;7.672;2023-03-14T07:15:25;43.57;;;40.83;;
6121;SDS011;3091;51.506;7.672;2023-03-14T07:17:51;43.80;;;41.00;;
6121;SDS011;3091;51.506;7.672;2023-03-14T07:20:17;40.50;;;37.90;;
6121;SDS011;3091;51.506;7.672;2023-03-14T07:22:46;39.70;;;37.20;;
6121;SDS011;3091;51.506;7.672;2023-03-14T07:25:12;39.93;;;37.33;;
6121;SDS011;3091;51.506;7.672;2023-03-14T07:27:38;43.93;;;41.33;;
6121;SDS011;3091;51.506;7.672;2023-03-14T07:30:05;43.50;;;41.00;;
6121;SDS011;3091;51.506;7.672;2023-03-14T07:32:31;39.57;;;37.17;;
6121;SDS011;3091;51.506;7.672;2023-03-14T07:34:57;35.20;;;33.00;;
6121;SDS011;3091;51.506;7.672;2023-03-14T07:37:23;34.57;;;32.47;;
6121;SDS011;3091;51.506;7.672;2023-03-14T07:39:49;35.97;;;33.73;;
6121;SDS011;3091;51.506;7.672;2023-03-14T07:42:15;36.03;;;33.73;;
6121;SDS011;3091;51.506;7.672;2023-03-14T07:44:41;37.40;;;35.10;;
6121;SDS011;3091;51.506;7.672;2023-03-14T07:47:07;34.47;;;32.37;;
6121;SDS011;3091;51.506;7.672;2023-03-14T07:49:33;33.03;;;30.93;;
6121;SDS011;3091;51.506;7.672;2023-03-14T07:51:59;30.67;;;28.77;;
6121;SDS011;3091;51.506;7.672;2023-03-14T07:54:25;25.23;;;23.83;;
6121;SDS011;3091;51.506;7.672;2023-03-14T07:56:51;23.20;;;21.90;;
6121;SDS011;3091;51.506;7.672;2023-03-14T07:59:17;20.87;;;19.77;;
6121;SDS011;3091;51.506;7.672;2023-03-14T08:01:43;20.40;;;19.30;;
6121;SDS011;3091;51.506;7.672;2023-03-14T08:04:10;19.87;;;18.77;;
6121;SDS011;3091;51.506;7.672;2023-03-14T08:06:36;19.87;;;18.80;;
6121;SDS011;3091;51.506;7.672;2023-03-14T08:09:03;19.70;;;18.70;;
6121;SDS011;3091;51.506;7.672;2023-03-14T08:11:29;20.27;;;19.17;;
6121;SDS011;3091;51.506;7.672;2023-03-14T08:13:55;19.80;;;18.80;;
6121;SDS011;3091;51.506;7.672;2023-03-14T08:16:21;20.40;;;19.40;;
6121;SDS011;3091;51.506;7.672;2023-03-14T08:18:47;19.90;;;18.90;;
6121;SDS011;3091;51.506;7.672;2023-03-14T08:21:13;20.10;;;19.10;;
6121;SDS011;3091;51.506;7.672;2023-03-14T08:23:39;22.20;;;21.10;;
6121;SDS011;3091;51.506;7.672;2023-03-14T08:26:06;20.50;;;19.50;;
6121;SDS011;3091;51.506;7.672;2023-03-14T08:28:32;19.33;;;18.33;;
6121;SDS011;3091;51.506;7.672;2023-03-14T08:30:59;18.70;;;17.80;;
6121;SDS011;3091;51.506;7.672;2023-03-14T08:33:26;19.00;;;18.10;;
6121;SDS011;3091;51.506;7.672;2023-03-14T08:35:53;18.90;;;18.00;;
6121;SDS011;3091;51.506;7.672;2023-03-14T08:38:19;18.60;;;17.73;;
6121;SDS011;3091;51.506;7.672;2023-03-14T08:40:46;18.40;;;17.50;;
6121;SDS011;3091;51.506;7.672;2023-03-14T08:43:12;18.37;;;17.47;;
6121;SDS011;3091;51.506;7.672;2023-03-14T08:45:38;17.73;;;16.93;;
6121;SDS011;3091;51.506;7.672;2023-03-14T08:48:05;18.33;;;17.53;;
6121;SDS011;3091;51.506;7.672;2023-03-14T08:50:31;27.07;;;25.57;;
6121;SDS011;3091;51.506;7.672;2023-03-14T08:52:57;26.00;;;24.60;;
6121;SDS011;3091;51.506;7.672;2023-03-14T08:55:25;30.57;;;28.97;;
6121;SDS011;3091;51.506;7.672;2023-03-14T08:57:52;35.60;;;33.60;;
6121;SDS011;3091;51.506;7.672;2023-03-14T09:00:18;36.90;;;34.70;;
6121;SDS011;3091;51.506;7.672;2023-03-14T09:02:44;49.23;;;46.23;;
6121;SDS011;3091;51.506;7.672;2023-03-14T09:05:10;51.90;;;48.63;;
6121;SDS011;3091;51.506;7.672;2023-03-14T09:07:39;52.20;;;48.90;;
6121;SDS011;3091;51.506;7.672;2023-03-14T09:10:06;49.20;;;46.10;;
6121;SDS011;3091;51.506;7.672;2023-03-14T09:12:33;49.73;;;46.73;;
6121;SDS011;3091;51.506;7.672;2023-03-14T09:14:59;49.37;;;46.23;;
6121;SDS011;3091;51.506;7.672;2023-03-14T09:17:25;50.90;;;47.90;;
6121;SDS011;3091;51.506;7.672;2023-03-14T09:19:53;47.40;;;44.40;;
6121;SDS011;3091;51.506;7.672;2023-03-14T09:22:19;49.10;;;46.20;;
6121;SDS011;3091;51.506;7.672;2023-03-14T09:24:46;54.07;;;50.97;;
6121;SDS011;3091;51.506;7.672;2023-03-14T09:27:12;54.30;;;51.10;;
6121;SDS011;3091;51.506;7.672;2023-03-14T09:29:38;53.13;;;50.03;;
6121;SDS011;3091;51.506;7.672;2023-03-14T09:32:04;53.53;;;50.27;;
6121;SDS011;3091;51.506;7.672;2023-03-14T09:34:32;54.57;;;51.50;;
6121;SDS011;3091;51.506;7.672;2023-03-14T09:36:59;51.17;;;48.37;;
6121;SDS011;3091;51.506;7.672;2023-03-14T09:39:25;49.67;;;46.67;;
6121;SDS011;3091;51.506;7.672;2023-03-14T09:41:51;53.77;;;50.57;;
6121;SDS011;3091;51.506;7.672;2023-03-14T09:46:51;51.17;;;47.77;;
6121;SDS011;3091;51.506;7.672;2023-03-14T09:49:20;47.33;;;44.23;;
6121;SDS011;3091;51.506;7.672;2023-03-14T09:51:47;46.10;;;42.90;;
6121;SDS011;3091;51.506;7.672;2023-03-14T09:54:26;43.27;;;40.27;;
6121;SDS011;3091;51.506;7.672;2023-03-14T09:56:56;43.47;;;40.47;;
6121;SDS011;3091;51.506;7.672;2023-03-14T09:59:22;44.13;;;41.23;;
6121;SDS011;3091;51.506;7.672;2023-03-14T10:01:48;42.57;;;39.67;;
6121;SDS011;3091;51.506;7.672;2023-03-14T10:04:15;42.97;;;40.07;;
6121;SDS011;3091;51.506;7.672;2023-03-14T10:06:42;42.60;;;39.70;;
6121;SDS011;3091;51.506;7.672;2023-03-14T10:09:42;45.17;;;42.20;;
6121;SDS011;3091;51.506;7.672;2023-03-14T10:12:00;45.60;;;42.70;;
6121;SDS011;3091;51.506;7.672;2023-03-14T10:14:34;47.93;;;44.93;;
6121;SDS011;3091;51.506;7.672;2023-03-14T10:17:07;50.10;;;47.20;;
6121;SDS011;3091;51.506;7.672;2023-03-14T10:19:36;49.23;;;46.33;;
6121;SDS011;3091;51.506;7.672;2023-03-14T10:22:03;48.87;;;45.97;;
6121;SDS011;3091;51.506;7.672;2023-03-14T10:24:33;47.80;;;44.90;;
6121;SDS011;3091;51.506;7.672;2023-03-14T10:27:03;46.60;;;43.60;;
6121;SDS011;3091;51.506;7.672;2023-03-14T10:29:30;46.87;;;43.90;;
6121;SDS011;3091;51.506;7.672;2023-03-14T10:32:06;47.10;;;44.23;;
6121;SDS011;3091;51.506;7.672;2023-03-14T10:34:38;45.93;;;43.03;;
6121;SDS011;3091;51.506;7.672;2023-03-14T10:37:23;44.37;;;41.57;;
6121;SDS011;3091;51.506;7.672;2023-03-14T10:39:53;43.07;;;40.07;;
6121;SDS011;3091;51.506;7.672;2023-03-14T10:42:29;41.33;;;38.53;;
6121;SDS011;3091;51.506;7.672;2023-03-14T10:45:00;42.03;;;39.23;;
6121;SDS011;3091;51.506;7.672;2023-03-14T10:47:27;42.60;;;39.80;;
6121;SDS011;3091;51.506;7.672;2023-03-14T10:49:53;45.47;;;42.57;;
6121;SDS011;3091;51.506;7.672;2023-03-14T10:52:37;48.03;;;45.03;;
6121;SDS011;3091;51.506;7.672;2023-03-14T10:55:10;49.40;;;46.50;;
6121;SDS011;3091;51.506;7.672;2023-03-14T10:57:40;46.97;;;44.27;;
6121;SDS011;3091;51.506;7.672;2023-03-14T11:00:09;47.20;;;44.50;;
6121;SDS011;3091;51.506;7.672;2023-03-14T11:05:24;46.00;;;43.30;;
6121;SDS011;3091;51.506;7.672;2023-03-14T11:07:51;43.93;;;41.33;;
6121;SDS011;3091;51.506;7.672;2023-03-14T11:24:08;40.37;;;37.77;;
6121;SDS011;3091;51.506;7.672;2023-03-14T11:26:18;45.27;;;42.37;;
6121;SDS011;3091;51.506;7.672;2023-03-14T11:28:50;44.47;;;41.77;;
6121;SDS011;3091;51.506;7.672;2023-03-14T11:31:20;51.50;;;48.60;;
6121;SDS011;3091;51.506;7.672;2023-03-14T11:33:56;50.70;;;47.80;;
6121;SDS011;3091;51.506;7.672;2023-03-14T11:36:38;46.10;;;43.30;;
6121;SDS011;3091;51.506;7.672;2023-03-14T11:39:14;44.07;;;41.47;;
6121;SDS011;3091;51.506;7.672;2023-03-14T11:41:42;44.33;;;41.73;;
6121;SDS011;3091;51.506;7.672;2023-03-14T11:44:32;47.20;;;44.50;;
6121;SDS011;3091;51.506;7.672;2023-03-14T11:47:10;48.73;;;46.03;;
6121;SDS011;3091;51.506;7.672;2023-03-14T11:52:10;40.37;;;38.27;;
6121;SDS011;3091;51.506;7.672;2023-03-14T11:57:05;33.67;;;32.07;;
6121;SDS011;3091;51.506;7.672;2023-03-14T11:59:46;26.00;;;24.80;;
6121;SDS011;3091;51.506;7.672;2023-03-14T12:04:54;20.30;;;19.30;;
6121;SDS011;3091;51.506;7.672;2023-03-14T12:07:22;20.17;;;19.17;;
6121;SDS011;3091;51.506;7.672;2023-03-14T12:09:49;19.87;;;18.87;;
6121;SDS011;3091;51.506;7.672;2023-03-14T12:12:20;20.27;;;19.27;;
6121;SDS011;3091;51.506;7.672;2023-03-14T12:14:52;20.60;;;19.60;;
6121;SDS011;3091;51.506;7.672;2023-03-14T12:17:20;20.50;;;19.50;;
6121;SDS011;3091;51.506;7.672;2023-03-14T12:19:46;18.37;;;17.57;;
6121;SDS011;3091;51.506;7.672;2023-03-14T12:22:23;18.40;;;17.60;;
6121;SDS011;3091;51.506;7.672;2023-03-14T12:24:51;17.50;;;16.80;;
6121;SDS011;3091;51.506;7.672;2023-03-14T12:30:23;17.80;;;17.00;;
6121;SDS011;3091;51.506;7.672;2023-03-14T12:35:37;16.40;;;15.70;;
6121;SDS011;3091;51.506;7.672;2023-03-14T12:38:04;16.40;;;15.80;;
6121;SDS011;3091;51.506;7.672;2023-03-14T12:40:36;17.50;;;16.80;;
6121;SDS011;3091;51.506;7.672;2023-03-14T12:43:10;15.90;;;15.30;;
6121;SDS011;3091;51.506;7.672;2023-03-14T12:48:34;15.40;;;14.80;;
6121;SDS011;3091;51.506;7.672;2023-03-14T12:51:01;15.60;;;15.00;;
6121;SDS011;3091;51.506;7.672;2023-03-14T12:58:38;15.73;;;15.13;;
6121;SDS011;3091;51.506;7.672;2023-03-14T13:01:05;15.90;;;15.30;;
6121;SDS011;3091;51.506;7.672;2023-03-14T13:06:13;15.53;;;15.00;;
6121;SDS011;3091;51.506;7.672;2023-03-14T13:09:01;15.53;;;14.93;;
6121;SDS011;3091;51.506;7.672;2023-03-14T13:11:45;14.80;;;14.30;;
6121;SDS011;3091;51.506;7.672;2023-03-14T13:14:11;15.83;;;15.23;;
6121;SDS011;3091;51.506;7.672;2023-03-14T13:16:37;18.77;;;17.97;;
6121;SDS011;3091;51.506;7.672;2023-03-14T13:19:06;22.43;;;21.33;;
6121;SDS011;3091;51.506;7.672;2023-03-14T13:21:37;25.70;;;24.40;;
6121;SDS011;3091;51.506;7.672;2023-03-14T13:24:04;39.57;;;37.37;;
6121;SDS011;3091;51.506;7.672;2023-03-14T13:26:35;48.47;;;45.67;;
6121;SDS011;3091;51.506;7.672;2023-03-14T13:29:18;53.57;;;50.57;;
6121;SDS011;3091;51.506;7.672;2023-03-14T13:31:45;59.37;;;55.97;;
6121;SDS011;3091;51.506;7.672;2023-03-14T13:34:14;54.93;;;51.83;;
6121;SDS011;3091;51.506;7.672;2023-03-14T13:36:42;59.80;;;56.60;;
6121;SDS011;3091;51.506;7.672;2023-03-14T13:39:19;57.87;;;54.67;;
6121;SDS011;3091;51.506;7.672;2023-03-14T13:41:47;59.67;;;56.27;;
6121;SDS011;3091;51.506;7.672;2023-03-14T13:44:17;59.40;;;56.20;;
6121;SDS011;3091;51.506;7.672;2023-03-14T13:46:44;56.40;;;53.30;;
6121;SDS011;3091;51.506;7.672;2023-03-14T13:49:11;55.10;;;52.10;;
6121;SDS011;3091;51.506;7.672;2023-03-14T13:51:39;52.00;;;49.10;;
6121;SDS011;3091;51.506;7.672;2023-03-14T13:54:15;48.77;;;46.10;;
6121;SDS011;3091;51.506;7.672;2023-03-14T13:56:44;47.10;;;44.50;;
6121;SDS011;3091;51.506;7.672;2023-03-14T13:59:29;50.03;;;47.33;;
6121;SDS011;3091;51.506;7.672;2023-03-14T14:01:57;52.47;;;49.67;;
6121;SDS011;3091;51.506;7.672;2023-03-14T14:04:24;58.47;;;55.37;;
6121;SDS011;3091;51.506;7.672;2023-03-14T14:07:01;59.57;;;56.43;;
6121;SDS011;3091;51.506;7.672;2023-03-14T14:09:53;59.53;;;56.40;;
6121;SDS011;3091;51.506;7.672;2023-03-14T14:12:31;56.17;;;53.27;;
6121;SDS011;3091;51.506;7.672;2023-03-14T14:15:13;53.17;;;50.47;;
6121;SDS011;3091;51.506;7.672;2023-03-14T14:17:45;44.37;;;42.07;;
6121;SDS011;3091;51.506;7.672;2023-03-14T14:23:01;29.03;;;27.53;;
6121;SDS011;3091;51.506;7.672;2023-03-14T14:25:28;24.50;;;23.30;;
6121;SDS011;3091;51.506;7.672;2023-03-14T14:27:55;20.70;;;19.70;;
6121;SDS011;3091;51.506;7.672;2023-03-14T14:32:47;16.90;;;16.20;;
6121;SDS011;3091;51.506;7.672;2023-03-14T14:38:12;15.77;;;15.17;;
6121;SDS011;3091;51.506;7.672;2023-03-14T14:40:45;15.43;;;14.83;;
6121;SDS011;3091;51.506;7.672;2023-03-14T14:43:14;18.30;;;17.60;;
6121;SDS011;3091;51.506;7.672;2023-03-14T14:45:44;15.60;;;15.00;;
6121;SDS011;3091;51.506;7.672;2023-03-14T14:48:21;15.50;;;14.90;;
6121;SDS011;3091;51.506;7.672;2023-03-14T14:55:53;15.97;;;15.37;;
6121;SDS011;3091;51.506;7.672;2023-03-14T14:58:30;16.53;;;15.93;;
6121;SDS011;3091;51.506;7.672;2023-03-14T15:01:18;15.70;;;15.03;;
6121;SDS011;3091;51.506;7.672;2023-03-14T15:03:49;16.00;;;15.17;;
6121;SDS011;3091;51.506;7.672;2023-03-14T15:06:16;13.37;;;12.97;;
6121;SDS011;3091;51.506;7.672;2023-03-14T15:08:43;12.10;;;11.70;;
6121;SDS011;3091;51.506;7.672;2023-03-14T15:11:16;11.70;;;11.30;;
6121;SDS011;3091;51.506;7.672;2023-03-14T15:13:43;11.40;;;11.10;;
6121;SDS011;3091;51.506;7.672;2023-03-14T15:16:10;11.50;;;11.10;;
6121;SDS011;3091;51.506;7.672;2023-03-14T15:18:36;10.63;;;10.33;;
6121;SDS011;3091;51.506;7.672;2023-03-14T15:21:02;11.10;;;10.80;;
6121;SDS011;3091;51.506;7.672;2023-03-14T15:23:28;11.10;;;10.80;;
6121;SDS011;3091;51.506;7.672;2023-03-14T15:25:54;11.33;;;10.93;;
6121;SDS011;3091;51.506;7.672;2023-03-14T15:28:21;11.60;;;11.20;;
6121;SDS011;3091;51.506;7.672;2023-03-14T15:30:49;11.70;;;11.30;;
6121;SDS011;3091;51.506;7.672;2023-03-14T15:33:15;11.60;;;11.20;;
6121;SDS011;3091;51.506;7.672;2023-03-14T15:35:41;11.60;;;11.20;;
6121;SDS011;3091;51.506;7.672;2023-03-14T15:38:11;11.80;;;11.40;;
6121;SDS011;3091;51.506;7.672;2023-03-14T15:40:40;11.50;;;11.10;;
6121;SDS011;3091;51.506;7.672;2023-03-14T15:43:06;11.50;;;11.10;;
6121;SDS011;3091;51.506;7.672;2023-03-14T15:45:33;11.50;;;11.10;;
6121;SDS011;3091;51.506;7.672;2023-03-14T15:47:59;11.37;;;10.97;;
6121;SDS011;3091;51.506;7.672;2023-03-14T15:50:25;11.20;;;10.80;;
6121;SDS011;3091;51.506;7.672;2023-03-14T15:52:51;11.10;;;10.70;;